createdAt,value
2019-02-23T00:00:12.610Z,99.90
2019-02-23T00:02:44.547Z,99.90
2019-02-23T00:05:15.722Z,99.90
2019-02-23T00:07:46.769Z,99.90
2019-02-23T00:10:18.139Z,99.90
2019-02-23T00:12:49.637Z,99.90
2019-02-23T00:15:20.751Z,99.90
2019-02-23T00:17:52.017Z,99.90
2019-02-23T00:20:23.289Z,99.90
2019-02-23T00:22:54.480Z,99.90
2019-02-23T00:25:25.642Z,99.90
2019-02-23T00:27:56.804Z,99.90
2019-02-23T00:30:28.207Z,99.90
2019-02-23T00:32:59.333Z,99.90
2019-02-23T00:35:30.503Z,99.90
2019-02-23T00:38:01.978Z,99.90
2019-02-23T00:40:33.118Z,99.90
2019-02-23T00:43:04.281Z,99.90
2019-02-23T00:45:35.477Z,99.90
2019-02-23T00:48:06.964Z,99.90
2019-02-23T00:50:38.158Z,99.90
2019-02-23T00:53:09.246Z,99.90
2019-02-23T00:55:40.313Z,99.90
2019-02-23T00:58:11.635Z,99.90
2019-02-23T01:00:42.713Z,99.90
2019-02-23T01:03:13.805Z,99.90
2019-02-23T01:05:45.013Z,99.90
2019-02-23T01:08:16.395Z,99.90
2019-02-23T01:10:57.656Z,99.90
2019-02-23T01:13:21.610Z,99.90
2019-02-23T01:15:52.888Z,99.90
2019-02-23T01:18:24.088Z,99.90
2019-02-23T01:20:55.217Z,99.90
2019-02-23T01:23:26.383Z,99.90
2019-02-23T01:25:57.824Z,99.90
2019-02-23T01:28:28.977Z,99.90
2019-02-23T01:31:00.485Z,99.90
2019-02-23T01:33:31.670Z,99.90
2019-02-23T01:36:02.873Z,99.90
2019-02-23T01:38:33.962Z,99.90
2019-02-23T01:41:05.572Z,99.90
2019-02-23T01:43:36.692Z,99.90
2019-02-23T01:46:07.876Z,99.90
2019-02-23T01:48:38.975Z,99.90
2019-02-23T01:51:10.246Z,99.90
2019-02-23T01:53:41.440Z,99.90
2019-02-23T01:56:12.804Z,99.90
2019-02-23T01:58:44.182Z,99.90
2019-02-23T02:01:15.471Z,99.90
2019-02-23T02:03:47.089Z,99.90
2019-02-23T02:06:18.349Z,99.90
2019-02-23T02:08:49.523Z,99.90
2019-02-23T02:11:21.523Z,99.90
2019-02-23T02:13:54.466Z,99.90
2019-02-23T02:16:26.036Z,99.90
2019-02-23T02:18:57.205Z,99.90
2019-02-23T02:21:28.353Z,99.90
2019-02-23T02:23:59.520Z,99.90
2019-02-23T02:26:42.679Z,99.90
2019-02-23T02:29:14.046Z,99.90
2019-02-23T02:31:45.525Z,99.90
2019-02-23T02:34:19.765Z,99.90
2019-02-23T02:36:50.899Z,99.90
2019-02-23T02:39:22.254Z,99.90
2019-02-23T02:41:53.295Z,99.90
2019-02-23T02:44:24.313Z,99.90
2019-02-23T02:46:55.524Z,99.90
2019-02-23T02:49:26.766Z,99.90
2019-02-23T02:51:58.456Z,99.90
2019-02-23T02:54:29.801Z,99.90
2019-02-23T02:57:00.955Z,99.90
2019-02-23T02:59:31.969Z,99.90
2019-02-23T03:02:03.163Z,99.90
2019-02-23T03:04:35.095Z,99.90
2019-02-23T03:07:06.642Z,99.90
2019-02-23T03:09:37.745Z,99.90
2019-02-23T03:12:08.933Z,99.90
2019-02-23T03:14:40.089Z,99.90
2019-02-23T03:17:11.286Z,99.90
2019-02-23T03:19:42.800Z,99.90
2019-02-23T03:22:14.073Z,99.90
2019-02-23T03:24:45.107Z,99.90
2019-02-23T03:27:16.274Z,99.90
2019-02-23T03:29:47.399Z,99.90
2019-02-23T03:32:18.519Z,99.90
2019-02-23T03:34:49.633Z,99.90
2019-02-23T03:37:20.758Z,99.90
2019-02-23T03:39:51.852Z,99.90
2019-02-23T03:42:22.953Z,99.90
2019-02-23T03:44:54.230Z,99.90
2019-02-23T03:47:25.426Z,99.90
2019-02-23T03:49:56.598Z,99.90
2019-02-23T03:52:27.868Z,99.90
2019-02-23T03:54:59.416Z,99.90
2019-02-23T03:57:30.676Z,99.90
2019-02-23T04:00:01.777Z,99.90
2019-02-23T04:02:33.324Z,99.90
2019-02-23T04:05:05.717Z,99.90
2019-02-23T04:07:37.146Z,99.90
2019-02-23T04:10:08.369Z,99.90
2019-02-23T04:12:39.568Z,99.90
2019-02-23T04:15:11.090Z,99.90
2019-02-23T04:17:42.424Z,99.90
2019-02-23T04:20:14.087Z,99.90
2019-02-23T04:22:45.534Z,99.90
2019-02-23T04:25:16.764Z,99.90
2019-02-23T04:27:47.921Z,99.90
2019-02-23T04:30:19.081Z,99.90
2019-02-23T04:32:50.433Z,99.90
2019-02-23T04:35:21.545Z,99.90
2019-02-23T04:37:52.852Z,99.90
2019-02-23T04:40:24.060Z,99.90
2019-02-23T04:42:55.504Z,99.90
2019-02-23T04:45:27.262Z,99.90
2019-02-23T04:47:58.326Z,99.90
2019-02-23T04:50:29.377Z,99.90
2019-02-23T04:53:00.598Z,99.90
2019-02-23T04:55:31.897Z,99.90
2019-02-23T04:58:03.045Z,99.90
2019-02-23T05:00:34.531Z,99.90
2019-02-23T05:03:05.738Z,99.90
2019-02-23T05:05:36.907Z,99.90
2019-02-23T05:08:08.181Z,99.90
2019-02-23T05:10:39.205Z,99.90
2019-02-23T05:13:10.515Z,99.90
2019-02-23T05:15:41.776Z,99.90
2019-02-23T05:18:13.024Z,99.90
2019-02-23T05:20:44.117Z,99.90
2019-02-23T05:23:15.633Z,99.90
2019-02-23T05:25:47.052Z,99.90
2019-02-23T05:28:18.095Z,99.90
2019-02-23T05:30:49.578Z,99.90
2019-02-23T05:33:20.678Z,99.90
2019-02-23T05:35:51.784Z,99.90
2019-02-23T05:38:22.972Z,99.90
2019-02-23T05:40:54.413Z,99.90
2019-02-23T05:43:25.478Z,99.90
2019-02-23T05:45:56.789Z,99.90
2019-02-23T05:48:28.293Z,99.90
2019-02-23T05:50:59.470Z,99.90
2019-02-23T05:53:30.758Z,99.90
2019-02-23T05:56:01.858Z,99.90
2019-02-23T05:58:32.987Z,99.90
2019-02-23T06:01:04.201Z,99.90
2019-02-23T06:03:35.557Z,99.90
2019-02-23T06:06:06.729Z,99.90
2019-02-23T06:08:37.929Z,99.90
2019-02-23T06:11:09.499Z,99.90
2019-02-23T06:13:40.633Z,99.90
2019-02-23T06:16:11.813Z,99.90
2019-02-23T06:18:43.332Z,99.90
2019-02-23T06:21:14.500Z,99.90
2019-02-23T06:23:46.699Z,99.90
2019-02-23T06:26:17.846Z,99.90
2019-02-23T06:28:49.070Z,99.90
2019-02-23T06:31:21.098Z,99.90
2019-02-23T06:33:52.212Z,99.90
2019-02-23T06:36:23.248Z,99.90
2019-02-23T06:38:54.375Z,99.90
2019-02-23T06:41:25.777Z,99.90
2019-02-23T06:43:56.837Z,99.90
2019-02-23T06:46:27.948Z,99.90
2019-02-23T06:48:59.218Z,99.90
2019-02-23T06:51:31.885Z,99.90
2019-02-23T06:54:03.083Z,99.90
2019-02-23T06:56:35.255Z,99.90
2019-02-23T06:59:06.743Z,99.90
2019-02-23T07:01:37.933Z,99.90
2019-02-23T07:04:08.975Z,99.90
2019-02-23T07:06:41.421Z,99.90
2019-02-23T07:09:12.565Z,99.90
2019-02-23T07:11:43.772Z,99.90
2019-02-23T07:14:15.315Z,99.90
2019-02-23T07:16:46.792Z,99.90
2019-02-23T07:19:17.942Z,99.90
2019-02-23T07:21:49.386Z,99.90
2019-02-23T07:24:20.524Z,99.90
2019-02-23T07:26:52.075Z,99.90
2019-02-23T07:29:23.214Z,99.90
2019-02-23T07:31:54.399Z,99.90
2019-02-23T07:34:25.690Z,99.90
2019-02-23T07:36:56.863Z,99.90
2019-02-23T07:39:28.072Z,99.90
2019-02-23T07:41:59.239Z,99.90
2019-02-23T07:44:30.692Z,99.90
2019-02-23T07:47:01.875Z,99.90
2019-02-23T07:49:32.998Z,99.90
2019-02-23T07:52:04.168Z,99.90
2019-02-23T07:54:35.294Z,99.90
2019-02-23T07:57:06.712Z,99.90
2019-02-23T07:59:37.874Z,99.90
2019-02-23T08:02:09.104Z,99.90
2019-02-23T08:04:40.212Z,99.90
2019-02-23T08:07:12.054Z,99.90
2019-02-23T08:09:43.117Z,99.90
2019-02-23T08:12:14.605Z,99.90
2019-02-23T08:14:47.169Z,99.90
2019-02-23T08:17:18.268Z,99.90
2019-02-23T08:19:49.564Z,99.90
2019-02-23T08:22:20.611Z,99.90
2019-02-23T08:24:53.281Z,99.90
2019-02-23T08:27:24.383Z,99.90
2019-02-23T08:29:55.866Z,99.90
2019-02-23T08:32:27.031Z,99.90
2019-02-23T08:34:58.277Z,99.90
2019-02-23T08:37:29.383Z,99.90
2019-02-23T08:40:00.955Z,99.90
2019-02-23T08:42:32.396Z,99.90
2019-02-23T08:45:03.529Z,99.90
2019-02-23T08:47:34.639Z,98.20
2019-02-23T08:50:07.391Z,97.50
2019-02-23T08:52:48.656Z,97.60
2019-02-23T08:55:11.714Z,97.00
2019-02-23T08:57:42.879Z,95.50
2019-02-23T09:00:16.363Z,96.50
2019-02-23T09:02:47.596Z,97.30
2019-02-23T09:05:18.879Z,98.10
2019-02-23T09:07:50.352Z,90.80
2019-02-23T09:10:21.835Z,87.70
2019-02-23T09:12:53.096Z,89.70
2019-02-23T09:15:24.356Z,72.30
2019-02-23T09:17:55.879Z,68.70
2019-02-23T09:20:29.493Z,70.80
2019-02-23T09:23:00.645Z,68.00
2019-02-23T09:25:31.978Z,69.90
2019-02-23T09:28:03.078Z,71.50
2019-02-23T09:30:34.289Z,66.70
2019-02-23T09:33:05.536Z,64.50
2019-02-23T09:35:37.169Z,61.90
2019-02-23T09:38:08.366Z,61.30
2019-02-23T09:40:39.473Z,66.70
2019-02-23T09:43:10.996Z,62.90
2019-02-23T09:45:42.650Z,60.00
2019-02-23T09:48:16.603Z,59.40
2019-02-23T09:50:47.733Z,57.00
2019-02-23T09:53:19.171Z,56.40
2019-02-23T09:55:50.232Z,58.00
2019-02-23T09:58:21.398Z,59.40
2019-02-23T10:00:52.491Z,59.40
2019-02-23T10:03:23.678Z,58.60
2019-02-23T10:05:55.002Z,57.80
2019-02-23T10:08:26.194Z,56.40
2019-02-23T10:10:57.749Z,57.80
2019-02-23T10:13:28.935Z,55.90
2019-02-23T10:16:00.567Z,54.70
2019-02-23T10:18:31.740Z,56.80
2019-02-23T10:21:02.927Z,55.00
2019-02-23T10:23:34.069Z,54.70
2019-02-23T10:26:05.325Z,54.50
2019-02-23T10:28:37.090Z,54.50
2019-02-23T10:31:08.371Z,53.50
2019-02-23T10:33:47.437Z,52.90
2019-02-23T10:36:12.541Z,52.20
2019-02-23T10:38:43.551Z,50.90
2019-02-23T10:41:14.672Z,52.10
2019-02-23T10:43:45.752Z,50.70
2019-02-23T10:46:16.967Z,51.40
2019-02-23T10:48:47.990Z,50.80
2019-02-23T10:51:20.263Z,52.10
2019-02-23T10:53:51.345Z,53.00
2019-02-23T10:56:22.618Z,52.40
2019-02-23T10:58:53.806Z,51.60
2019-02-23T11:01:25.434Z,51.50
2019-02-23T11:03:57.935Z,50.10
2019-02-23T11:06:29.122Z,48.80
2019-02-23T11:09:00.283Z,48.20
2019-02-23T11:11:33.165Z,47.50
2019-02-23T11:14:05.332Z,46.80
2019-02-23T11:16:36.540Z,45.80
2019-02-23T11:19:07.714Z,44.90
2019-02-23T11:21:38.926Z,44.20
2019-02-23T11:24:10.270Z,43.70
2019-02-23T11:26:41.798Z,43.20
2019-02-23T11:29:13.023Z,43.00
2019-02-23T11:31:44.255Z,42.40
2019-02-23T11:34:15.435Z,42.10
2019-02-23T11:36:46.666Z,40.60
2019-02-23T11:39:18.160Z,41.20
2019-02-23T11:41:49.349Z,41.10
2019-02-23T11:44:20.910Z,40.20
2019-02-23T11:47:00.019Z,40.70
2019-02-23T11:49:25.866Z,39.50
2019-02-23T11:51:56.994Z,37.70
2019-02-23T11:54:28.474Z,37.10
2019-02-23T11:56:59.715Z,36.40
2019-02-23T11:59:30.746Z,33.10
2019-02-23T12:02:01.870Z,32.20
2019-02-23T12:04:32.946Z,31.20
2019-02-23T12:07:04.077Z,31.20
2019-02-23T12:09:35.605Z,31.30
2019-02-23T12:12:06.714Z,30.70
2019-02-23T12:14:37.803Z,31.10
2019-02-23T12:17:09.011Z,31.20
2019-02-23T12:19:40.481Z,32.10
2019-02-23T12:22:12.596Z,31.90
2019-02-23T12:24:43.772Z,31.60
2019-02-23T12:27:14.855Z,32.20
2019-02-23T12:29:46.389Z,33.60
2019-02-23T12:32:18.770Z,33.30
2019-02-23T12:34:49.894Z,34.40
2019-02-23T12:37:21.458Z,34.50
2019-02-23T12:39:52.813Z,34.60
2019-02-23T12:42:23.919Z,35.10
2019-02-23T12:44:55.503Z,35.80
2019-02-23T12:47:27.071Z,35.70
2019-02-23T12:49:58.167Z,36.50
2019-02-23T12:52:29.639Z,35.60
2019-02-23T12:55:00.662Z,36.50
2019-02-23T12:57:32.969Z,36.80
2019-02-23T13:00:04.419Z,37.30
2019-02-23T13:02:37.166Z,37.60
2019-02-23T13:05:08.540Z,37.30
2019-02-23T13:07:39.768Z,36.60
2019-02-23T13:10:11.606Z,35.40
2019-02-23T13:13:43.739Z,36.30
2019-02-23T13:17:23.542Z,36.00
2019-02-23T13:21:23.695Z,36.30
2019-02-23T13:24:44.480Z,37.40
2019-02-23T13:28:20.094Z,38.50
2019-02-23T13:31:51.453Z,37.90
2019-02-23T13:35:29.884Z,37.50
2019-02-23T13:38:46.723Z,38.60
2019-02-23T13:41:48.108Z,38.70
2019-02-23T13:45:13.230Z,39.70
2019-02-23T13:48:17.814Z,39.70
2019-02-23T13:51:25.083Z,40.60
2019-02-23T13:55:02.172Z,40.00
2019-02-23T13:58:18.867Z,40.10
2019-02-23T14:02:19.511Z,40.60
2019-02-23T14:05:25.383Z,41.50
2019-02-23T14:09:12.167Z,41.30
2019-02-23T14:12:36.621Z,40.90
2019-02-23T14:15:55.418Z,41.10
2019-02-23T14:18:59.841Z,41.90
2019-02-23T14:22:19.024Z,43.10
2019-02-23T14:25:32.442Z,42.10
2019-02-23T14:28:58.271Z,42.60
2019-02-23T14:32:13.642Z,42.60
2019-02-23T14:35:33.936Z,41.90
2019-02-23T14:39:08.358Z,41.40
2019-02-23T14:42:35.375Z,41.30
2019-02-23T14:45:53.773Z,41.00
2019-02-23T14:49:23.285Z,40.80
2019-02-23T14:52:56.862Z,42.00
2019-02-23T14:56:34.770Z,42.50
2019-02-23T14:59:51.677Z,42.70
2019-02-23T15:03:29.941Z,41.20
2019-02-23T15:06:50.441Z,41.80
2019-02-23T15:09:52.157Z,41.30
2019-02-23T15:13:06.821Z,42.40
2019-02-23T15:16:17.583Z,41.30
2019-02-23T15:19:29.715Z,42.00
2019-02-23T15:22:43.547Z,42.40
2019-02-23T15:25:49.343Z,42.90
2019-02-23T15:29:12.762Z,43.20
2019-02-23T15:32:51.038Z,42.80
2019-02-23T15:35:59.375Z,43.10
2019-02-23T15:40:10.131Z,43.00
2019-02-23T15:43:19.206Z,43.50
2019-02-23T15:46:31.072Z,43.30
2019-02-23T15:49:29.279Z,43.60
2019-02-23T15:52:03.824Z,43.90
2019-02-23T15:54:35.392Z,44.10
2019-02-23T15:57:06.598Z,44.20
2019-02-23T15:59:37.981Z,44.40
2019-02-23T16:02:09.586Z,44.50
2019-02-23T16:04:41.145Z,44.80
2019-02-23T16:07:12.369Z,45.40
2019-02-23T16:09:43.454Z,45.50
2019-02-23T16:12:14.985Z,45.70
2019-02-23T16:14:46.372Z,46.30
2019-02-23T16:17:17.888Z,46.20
2019-02-23T16:19:49.131Z,46.70
2019-02-23T16:22:21.035Z,47.00
2019-02-23T16:24:52.226Z,47.30
2019-02-23T16:27:23.867Z,47.70
2019-02-23T16:29:55.378Z,48.10
2019-02-23T16:32:26.793Z,48.90
2019-02-23T16:34:57.886Z,48.70
2019-02-23T16:37:29.158Z,49.00
2019-02-23T16:40:00.477Z,49.10
2019-02-23T16:42:32.397Z,49.50
2019-02-23T16:45:03.680Z,49.80
2019-02-23T16:47:34.828Z,50.30
2019-02-23T16:50:06.217Z,50.80
2019-02-23T16:52:37.528Z,51.10
2019-02-23T16:55:09.340Z,51.20
2019-02-23T16:57:40.659Z,52.20
2019-02-23T17:00:11.930Z,51.90
2019-02-23T17:02:43.298Z,52.50
2019-02-23T17:05:14.520Z,52.10
2019-02-23T17:07:45.643Z,53.40
2019-02-23T17:10:17.147Z,54.10
2019-02-23T17:12:48.898Z,54.70
2019-02-23T17:15:20.145Z,55.60
2019-02-23T17:17:51.496Z,56.30
2019-02-23T17:20:25.507Z,56.00
2019-02-23T17:22:55.554Z,56.20
2019-02-23T17:25:26.721Z,56.40
2019-02-23T17:27:57.904Z,57.00
2019-02-23T17:30:29.188Z,58.50
2019-02-23T17:33:00.779Z,59.90
2019-02-23T17:35:32.306Z,58.90
2019-02-23T17:38:15.407Z,58.40
2019-02-23T17:40:36.662Z,58.60
2019-02-23T17:43:07.789Z,59.70
2019-02-23T17:45:38.972Z,61.60
2019-02-23T17:48:10.125Z,62.70
2019-02-23T17:50:41.297Z,62.70
2019-02-23T17:53:13.943Z,64.70
2019-02-23T17:55:44.996Z,64.90
2019-02-23T17:58:16.066Z,67.20
2019-02-23T18:00:47.197Z,67.90
2019-02-23T18:03:18.791Z,68.80
2019-02-23T18:05:50.327Z,69.50
2019-02-23T18:08:21.646Z,69.60
2019-02-23T18:10:54.498Z,72.40
2019-02-23T18:13:25.793Z,75.40
2019-02-23T18:15:57.026Z,76.30
2019-02-23T18:18:28.088Z,76.80
2019-02-23T18:20:59.162Z,76.00
2019-02-23T18:23:30.224Z,74.90
2019-02-23T18:26:02.084Z,74.00
2019-02-23T18:28:35.142Z,72.80
2019-02-23T18:31:06.328Z,69.60
2019-02-23T18:33:38.452Z,76.60
2019-02-23T18:36:11.022Z,79.20
2019-02-23T18:38:42.427Z,84.20
2019-02-23T18:41:13.820Z,90.60
2019-02-23T18:43:45.269Z,90.60
2019-02-23T18:46:16.411Z,92.40
2019-02-23T18:48:47.668Z,93.80
2019-02-23T18:51:19.215Z,95.40
2019-02-23T18:53:50.349Z,95.00
2019-02-23T18:56:29.213Z,95.10
2019-02-23T18:58:54.487Z,95.10
2019-02-23T19:01:25.773Z,93.80
2019-02-23T19:03:57.047Z,94.10
2019-02-23T19:06:28.239Z,93.80
2019-02-23T19:08:59.470Z,94.20
2019-02-23T19:11:30.676Z,94.20
2019-02-23T19:14:01.861Z,95.00
2019-02-23T19:16:33.279Z,94.40
2019-02-23T19:19:04.576Z,94.80
2019-02-23T19:21:35.830Z,95.00
2019-02-23T19:24:07.209Z,96.20
2019-02-23T19:26:39.306Z,96.10
2019-02-23T19:29:10.460Z,95.90
2019-02-23T19:31:41.591Z,98.30
2019-02-23T19:34:12.889Z,99.40
2019-02-23T19:36:44.804Z,99.90
2019-02-23T19:39:16.298Z,99.90
2019-02-23T19:41:47.341Z,99.90
2019-02-23T19:44:18.807Z,99.90
2019-02-23T19:46:56.993Z,99.90
2019-02-23T19:49:28.431Z,99.00
2019-02-23T19:51:59.466Z,98.40
2019-02-23T19:54:30.595Z,97.40
2019-02-23T19:57:01.669Z,97.20
2019-02-23T19:59:33.056Z,97.40
2019-02-23T20:02:04.721Z,97.60
2019-02-23T20:04:37.007Z,97.60
2019-02-23T20:07:08.682Z,97.80
2019-02-23T20:09:39.951Z,98.10
2019-02-23T20:12:11.118Z,97.70
2019-02-23T20:14:42.637Z,97.40
2019-02-23T20:17:14.147Z,97.20
2019-02-23T20:19:46.907Z,97.10
2019-02-23T20:22:18.173Z,97.30
2019-02-23T20:24:49.230Z,97.20
2019-02-23T20:27:20.388Z,97.60
2019-02-23T20:29:52.345Z,97.70
2019-02-23T20:32:23.594Z,97.80
2019-02-23T20:34:54.829Z,97.80
2019-02-23T20:37:26.067Z,97.80
2019-02-23T20:39:57.321Z,97.70
2019-02-23T20:42:28.413Z,97.80
2019-02-23T20:44:59.993Z,98.00
2019-02-23T20:47:31.483Z,98.90
2019-02-23T20:50:02.700Z,98.20
2019-02-23T20:52:34.283Z,99.00
2019-02-23T20:55:06.200Z,99.80
2019-02-23T20:57:37.487Z,99.80
2019-02-23T21:00:09.653Z,99.80
2019-02-23T21:02:42.631Z,99.90
2019-02-23T21:05:13.925Z,99.90
2019-02-23T21:07:45.382Z,99.90
2019-02-23T21:10:16.958Z,99.90
2019-02-23T21:12:47.982Z,99.90
2019-02-23T21:15:19.363Z,99.90
2019-02-23T21:17:50.487Z,99.90
2019-02-23T21:20:21.623Z,99.90
2019-02-23T21:22:52.912Z,99.90
2019-02-23T21:25:23.949Z,99.90
2019-02-23T21:27:55.461Z,99.90
2019-02-23T21:30:26.662Z,99.90
2019-02-23T21:32:57.836Z,99.90
2019-02-23T21:35:29.041Z,99.90
2019-02-23T21:38:00.210Z,99.90
2019-02-23T21:40:31.971Z,99.90
2019-02-23T21:43:03.144Z,99.90
2019-02-23T21:45:34.416Z,99.90
2019-02-23T21:48:05.602Z,99.90
2019-02-23T21:50:36.807Z,99.90
2019-02-23T21:53:07.833Z,99.90
2019-02-23T21:55:38.981Z,99.90
2019-02-23T21:58:10.000Z,99.90
2019-02-23T22:00:41.141Z,99.90
2019-02-23T22:03:13.413Z,99.90
2019-02-23T22:05:44.704Z,99.90
2019-02-23T22:08:15.880Z,99.90
2019-02-23T22:10:47.370Z,99.90
2019-02-23T22:13:18.406Z,99.90
2019-02-23T22:15:49.589Z,99.90
2019-02-23T22:18:20.623Z,99.90
2019-02-23T22:20:51.832Z,99.90
2019-02-23T22:23:23.614Z,99.90
2019-02-23T22:25:54.833Z,99.90
2019-02-23T22:28:25.841Z,99.90
2019-02-23T22:30:57.218Z,99.90
2019-02-23T22:33:28.313Z,99.90
2019-02-23T22:35:59.560Z,99.90
2019-02-23T22:38:30.577Z,99.90
2019-02-23T22:41:01.792Z,99.90
2019-02-23T22:43:32.888Z,99.90
2019-02-23T22:46:04.102Z,99.90
2019-02-23T22:48:35.112Z,99.90
2019-02-23T22:51:06.375Z,99.90
2019-02-23T22:53:37.540Z,99.90
2019-02-23T22:56:08.599Z,99.90
2019-02-23T22:58:39.723Z,99.90
2019-02-23T23:01:11.500Z,99.90
2019-02-23T23:03:44.200Z,99.90
2019-02-23T23:06:15.433Z,99.90
2019-02-23T23:08:46.801Z,99.90
2019-02-23T23:11:17.997Z,99.90
2019-02-23T23:13:49.088Z,99.90
2019-02-23T23:16:22.030Z,99.90
2019-02-23T23:18:53.507Z,99.90
2019-02-23T23:21:25.081Z,99.90
2019-02-23T23:23:56.140Z,99.90
2019-02-23T23:26:27.396Z,99.90
2019-02-23T23:28:58.415Z,99.90
2019-02-23T23:31:30.061Z,99.90
2019-02-23T23:34:01.616Z,99.90
2019-02-23T23:36:32.880Z,99.90
2019-02-23T23:39:05.603Z,99.90
2019-02-23T23:41:37.414Z,99.90
2019-02-23T23:44:09.155Z,99.90
2019-02-23T23:46:40.512Z,99.90
2019-02-23T23:49:11.792Z,99.90
2019-02-23T23:51:42.918Z,99.90
2019-02-23T23:54:14.003Z,99.90
2019-02-23T23:56:46.403Z,99.90
2019-02-23T23:59:17.635Z,99.90
